Time;durP1;ratioP1;P1;durP2;ratioP2;P2;SDS_P1;SDS_P2;PMS_P1;PMS_P2;Temp;Humidity;BMP_temperature;BMP_pressure;BME280_temperature;BME280_humidity;BME280_pressure;Samples;Min_cycle;Max_cycle;Signal;HPM_P1;HPM_P2
2023/09/24 00:02:14;;;;;;;;;;;;;;;8.26;70.22;101366.61;104907;1289;61157;-57
2023/09/24 00:05:01;;;;;;;;;;;;;;;8.24;70.43;101369.86;104985;1289;61190;-57
2023/09/24 00:07:48;;;;;;;;;;;;;;;8.25;70.16;101372.45;104940;1290;73712;-56
2023/09/24 00:10:34;;;;;;;;;;;;;;;8.25;70.32;101375.20;104923;1289;67296;-57
2023/09/24 00:13:21;;;;;;;;;;;;;;;8.27;70.04;101379.50;104902;1289;72385;-57
2023/09/24 00:16:07;;;;;;;;;;;;;;;8.26;70.55;101388.09;104942;1289;61237;-57
2023/09/24 00:18:54;;;;;;;;;;;;;;;8.22;70.66;101392.18;104967;1288;61457;-57
2023/09/24 00:21:40;;;;;;;;;;;;;;;8.18;70.67;101395.77;104909;1291;76040;-57
2023/09/24 00:24:26;;;;;;;;;;;;;;;8.18;70.52;101396.62;104954;1289;67110;-56
2023/09/24 00:27:12;;;;;;;;;;;;;;;8.19;70.79;101395.25;104868;1291;73969;-56
2023/09/24 00:29:58;;;;;;;;;;;;;;;8.23;71.19;101393.73;105385;1288;61227;-56
2023/09/24 00:32:44;;;;;;;;;;;;;;;8.23;70.73;101393.91;106267;1294;58977;-56
2023/09/24 00:35:30;;;;;;;;;;;;;;;8.22;70.53;101390.64;106231;1291;74363;-56
2023/09/24 00:38:18;;;;;;;;;;;;;;;8.22;70.75;101396.82;106305;1288;67364;-56
2023/09/24 00:41:03;;;;;;;;;;;;;;;8.22;70.81;101403.69;106225;1289;71420;-56
2023/09/24 00:43:49;;;;;;;;;;;;;;;8.19;71.02;101405.21;106261;1289;59243;-56
2023/09/24 00:46:35;;;;;;;;;;;;;;;8.16;70.78;101405.71;106255;1289;59169;-56
2023/09/24 00:49:21;;;;;;;;;;;;;;;8.13;70.49;101405.35;106301;1289;74350;-56
2023/09/24 00:52:09;;;;;;;;;;;;;;;8.12;70.81;101403.11;106271;1288;68558;-56
2023/09/24 00:54:56;;;;;;;;;;;;;;;8.12;70.77;101398.47;106235;1289;72413;-56
2023/09/24 00:57:43;;;;;;;;;;;;;;;8.11;70.87;101405.84;106276;1289;58938;-56
2023/09/24 01:00:30;;;;;;;;;;;;;;;8.11;71.00;101410.65;106230;1289;60267;-56
2023/09/24 01:03:16;;;;;;;;;;;;;;;8.09;71.25;101418.37;106192;1289;74964;-56
2023/09/24 01:06:06;;;;;;;;;;;;;;;8.06;71.13;101420.23;106273;1289;68250;-56
2023/09/24 01:08:52;;;;;;;;;;;;;;;8.02;70.65;101425.52;106189;1289;72476;-56
2023/09/24 01:11:38;;;;;;;;;;;;;;;8.00;70.96;101424.48;106269;1289;58853;-57
2023/09/24 01:14:25;;;;;;;;;;;;;;;7.99;71.13;101429.45;106227;1289;59983;-55
2023/09/24 01:17:11;;;;;;;;;;;;;;;7.97;71.07;101429.45;106230;1289;75279;-56
2023/09/24 01:19:57;;;;;;;;;;;;;;;7.96;71.34;101428.40;106248;1289;68812;-56
2023/09/24 01:22:42;;;;;;;;;;;;;;;7.94;70.84;101424.95;106254;1289;71382;-56
2023/09/24 01:25:37;;;;;;;;;;;;;;;7.94;71.01;101424.95;106233;1289;59002;-56
2023/09/24 01:28:23;;;;;;;;;;;;;;;7.93;70.66;101426.31;106269;1288;60288;-56
2023/09/24 01:31:09;;;;;;;;;;;;;;;7.92;70.81;101421.69;106216;1289;73374;-55
2023/09/24 01:33:55;;;;;;;;;;;;;;;7.91;70.92;101423.55;106208;1289;68397;-56
2023/09/24 01:36:41;;;;;;;;;;;;;;;7.87;71.06;101419.58;106240;1289;71196;-55
2023/09/24 01:39:31;;;;;;;;;;;;;;;7.84;71.15;101429.50;106190;1289;58893;-56
2023/09/24 01:42:16;;;;;;;;;;;;;;;7.79;71.32;101429.83;106281;1289;59164;-56
2023/09/24 01:45:03;;;;;;;;;;;;;;;7.73;71.42;101431.84;106264;1288;74179;-56
2023/09/24 01:47:50;;;;;;;;;;;;;;;7.69;71.45;101436.10;106280;1288;67015;-56
2023/09/24 01:50:36;;;;;;;;;;;;;;;7.68;71.12;101441.58;106253;1289;71401;-56
2023/09/24 01:53:22;;;;;;;;;;;;;;;7.65;70.96;101444.13;106219;1288;58892;-56
2023/09/24 01:56:09;;;;;;;;;;;;;;;7.59;70.79;101446.30;106273;1289;60055;-56
2023/09/24 01:58:56;;;;;;;;;;;;;;;7.55;70.80;101449.17;106266;1289;74559;-55
2023/09/24 02:01:44;;;;;;;;;;;;;;;7.54;70.76;101450.02;106246;1288;67893;-56
2023/09/24 02:04:30;;;;;;;;;;;;;;;7.52;71.13;101452.41;106272;1289;71375;-56
2023/09/24 02:07:16;;;;;;;;;;;;;;;7.51;71.52;101454.79;105811;1291;59923;-55
2023/09/24 02:10:05;;;;;;;;;;;;;;;7.48;71.61;101454.77;104849;1288;62786;-55
2023/09/24 02:12:52;;;;;;;;;;;;;;;7.42;71.35;101454.52;104881;1291;76067;-55
2023/09/24 02:15:41;;;;;;;;;;;;;;;7.35;71.27;101456.67;104968;1289;67530;-56
2023/09/24 02:18:32;;;;;;;;;;;;;;;7.32;71.74;101463.16;104922;1294;71261;-55
2023/09/24 02:21:19;;;;;;;;;;;;;;;7.25;71.60;101463.45;104911;1292;61157;-55
2023/09/24 02:24:06;;;;;;;;;;;;;;;7.15;71.82;101469.70;104919;1289;61819;-55
2023/09/24 02:26:52;;;;;;;;;;;;;;;7.08;71.84;101473.21;104906;1289;73159;-55
2023/09/24 02:29:38;;;;;;;;;;;;;;;7.04;71.99;101478.30;104890;1292;67284;-55
2023/09/24 02:32:25;;;;;;;;;;;;;;;7.01;72.04;101481.52;104865;1289;71194;-55
2023/09/24 02:35:12;;;;;;;;;;;;;;;6.96;72.03;101485.73;104861;1289;61141;-55
2023/09/24 02:37:58;;;;;;;;;;;;;;;6.89;72.01;101489.77;104864;1292;59717;-53
2023/09/24 02:40:44;;;;;;;;;;;;;;;6.86;72.13;101490.58;104929;1289;73086;-56
2023/09/24 02:43:32;;;;;;;;;;;;;;;6.83;71.64;101492.61;104936;1289;69482;-56
2023/09/24 02:46:18;;;;;;;;;;;;;;;6.81;71.33;101494.11;104940;1293;71350;-54
2023/09/24 02:49:06;;;;;;;;;;;;;;;6.75;71.61;101492.34;104917;1289;62711;-55
2023/09/24 02:51:52;;;;;;;;;;;;;;;6.72;71.88;101490.59;104922;1289;61276;-54
2023/09/24 02:54:38;;;;;;;;;;;;;;;6.72;72.15;101498.64;104939;1289;74311;-55
2023/09/24 02:57:26;;;;;;;;;;;;;;;6.70;72.24;101510.10;104881;1289;68699;-53
2023/09/24 03:00:21;;;;;;;;;;;;;;;6.69;71.83;101517.80;104910;1289;75126;-56
2023/09/24 03:03:09;;;;;;;;;;;;;;;6.62;71.27;101520.27;104914;1289;61163;-55
2023/09/24 03:05:55;;;;;;;;;;;;;;;6.58;71.27;101526.71;104885;1293;61266;-56
2023/09/24 03:08:41;;;;;;;;;;;;;;;6.53;71.96;101532.13;104957;1289;74229;-55
2023/09/24 03:11:27;;;;;;;;;;;;;;;6.54;72.17;101537.27;104981;1289;67772;-55
2023/09/24 03:14:14;;;;;;;;;;;;;;;6.53;71.91;101540.67;104899;1289;71277;-54
2023/09/24 03:17:00;;;;;;;;;;;;;;;6.52;71.86;101545.11;104947;1289;61940;-54
2023/09/24 03:19:46;;;;;;;;;;;;;;;6.50;72.04;101549.36;104850;1289;59983;-55
2023/09/24 03:22:32;;;;;;;;;;;;;;;6.48;72.00;101551.90;104911;1289;73249;-55
2023/09/24 03:25:19;;;;;;;;;;;;;;;6.47;71.48;101558.40;104917;1288;67326;-55
2023/09/24 03:28:05;;;;;;;;;;;;;;;6.45;71.92;101562.14;104904;1289;71255;-55
2023/09/24 03:30:51;;;;;;;;;;;;;;;6.42;71.97;101565.00;104895;1289;61164;-56
2023/09/24 03:33:38;;;;;;;;;;;;;;;6.39;71.74;101567.69;104918;1289;61160;-55
2023/09/24 03:36:24;;;;;;;;;;;;;;;6.38;71.49;101574.00;104894;1292;74079;-55
2023/09/24 03:39:10;;;;;;;;;;;;;;;6.37;72.03;101576.90;104925;1289;67257;-54
2023/09/24 03:41:56;;;;;;;;;;;;;;;6.37;72.02;101579.81;104938;1294;71570;-55
2023/09/24 03:44:42;;;;;;;;;;;;;;;6.37;71.71;101579.81;104914;1289;61288;-54
2023/09/24 03:47:29;;;;;;;;;;;;;;;6.40;71.84;101576.94;104936;1289;61260;-54
2023/09/24 03:50:17;;;;;;;;;;;;;;;6.40;72.17;101576.45;104944;1288;75066;-55
2023/09/24 03:53:03;;;;;;;;;;;;;;;6.41;72.44;101582.10;104894;1289;67238;-55
2023/09/24 03:55:49;;;;;;;;;;;;;;;6.40;72.49;101591.16;106156;1288;71270;-55
2023/09/24 03:58:35;;;;;;;;;;;;;;;6.35;72.31;101600.84;106251;1290;59018;-55
2023/09/24 04:01:22;;;;;;;;;;;;;;;6.30;71.62;101604.52;106211;1289;59057;-56
2023/09/24 04:04:12;;;;;;;;;;;;;;;6.21;71.74;101608.16;106036;1288;342546;-56
2023/09/24 04:06:57;;;;;;;;;;;;;;;6.16;71.65;101609.95;106275;1289;67616;-55
2023/09/24 04:09:43;;;;;;;;;;;;;;;6.14;72.30;101611.80;106182;1293;71122;-56
2023/09/24 04:12:30;;;;;;;;;;;;;;;6.14;72.32;101622.42;106267;1289;59014;-55
2023/09/24 04:15:18;;;;;;;;;;;;;;;6.10;71.91;101629.86;106254;1289;59041;-56
2023/09/24 04:18:04;;;;;;;;;;;;;;;6.06;71.81;101623.96;106266;1289;73279;-55
2023/09/24 04:20:52;;;;;;;;;;;;;;;6.03;71.97;101627.86;106277;1290;67479;-56
2023/09/24 04:23:37;;;;;;;;;;;;;;;6.06;72.51;101636.30;106255;1288;71900;-56
2023/09/24 04:26:24;;;;;;;;;;;;;;;6.04;72.57;101647.55;106276;1291;58916;-56
2023/09/24 04:29:11;;;;;;;;;;;;;;;5.99;72.49;101656.02;106205;1289;59255;-56
2023/09/24 04:31:56;;;;;;;;;;;;;;;5.93;72.51;101661.89;106278;1288;73996;-56
2023/09/24 04:34:45;;;;;;;;;;;;;;;5.89;72.61;101659.77;106311;1288;67551;-57
2023/09/24 04:37:31;;;;;;;;;;;;;;;5.88;72.14;101661.77;106268;1289;72984;-55
2023/09/24 04:40:18;;;;;;;;;;;;;;;5.87;72.55;101660.71;106256;1289;59077;-55
2023/09/24 04:43:05;;;;;;;;;;;;;;;5.87;72.66;101663.63;106265;1289;59317;-54
2023/09/24 04:45:51;;;;;;;;;;;;;;;5.88;72.63;101674.92;106232;1288;73387;-55
2023/09/24 04:48:37;;;;;;;;;;;;;;;5.86;72.79;101684.48;106274;1289;67469;-56
2023/09/24 04:51:23;;;;;;;;;;;;;;;5.85;72.22;101684.80;106241;1289;71191;-56
2023/09/24 04:54:09;;;;;;;;;;;;;;;5.84;72.14;101685.64;106268;1289;59022;-56
2023/09/24 04:56:54;;;;;;;;;;;;;;;5.81;72.17;101684.54;106257;1288;60653;-56
2023/09/24 04:59:40;;;;;;;;;;;;;;;5.82;72.71;101690.55;106311;1289;73377;-56
2023/09/24 05:02:26;;;;;;;;;;;;;;;5.81;72.80;101688.98;105752;1291;66971;-56
2023/09/24 05:05:14;;;;;;;;;;;;;;;5.77;72.85;101695.58;104901;1291;71243;-54
2023/09/24 05:08:02;;;;;;;;;;;;;;;5.76;73.02;101701.37;104941;1290;61769;-55
2023/09/24 05:10:49;;;;;;;;;;;;;;;5.76;73.23;101700.35;104952;1288;59944;-55
2023/09/24 05:13:36;;;;;;;;;;;;;;;5.78;72.98;101702.80;104957;1289;77406;-55
2023/09/24 05:16:22;;;;;;;;;;;;;;;5.82;73.32;101707.66;104976;1289;70430;-54
2023/09/24 05:19:08;;;;;;;;;;;;;;;5.83;73.27;101712.14;105004;1290;71530;-56
2023/09/24 05:21:54;;;;;;;;;;;;;;;5.83;73.32;101717.60;104649;1289;62096;-55
2023/09/24 05:24:41;;;;;;;;;;;;;;;5.86;72.87;101722.96;104934;1289;61199;-55
2023/09/24 05:27:29;;;;;;;;;;;;;;;5.90;73.24;101722.23;105012;1289;73239;-55
2023/09/24 05:30:15;;;;;;;;;;;;;;;5.95;72.80;101726.61;104944;1289;67215;-55
2023/09/24 05:33:03;;;;;;;;;;;;;;;6.00;72.93;101731.02;104915;1289;72961;-55
2023/09/24 05:35:50;;;;;;;;;;;;;;;6.09;73.04;101737.35;104948;1289;61139;-54
2023/09/24 05:38:37;;;;;;;;;;;;;;;6.18;72.90;101739.95;104920;1289;62872;-56
2023/09/24 05:41:23;;;;;;;;;;;;;;;6.28;73.33;101743.19;104920;1291;76086;-55
2023/09/24 05:44:09;;;;;;;;;;;;;;;6.39;73.67;101736.71;104945;1291;70838;-55
2023/09/24 05:46:55;;;;;;;;;;;;;;;6.50;73.43;101739.67;104943;1292;71078;-55
2023/09/24 05:49:41;;;;;;;;;;;;;;;6.59;73.68;101738.98;104951;1289;61183;-54
2023/09/24 05:52:28;;;;;;;;;;;;;;;6.68;73.80;101740.02;104929;1289;61842;-55
2023/09/24 05:55:14;;;;;;;;;;;;;;;6.77;73.96;101744.09;104984;1289;72525;-55
2023/09/24 05:58:00;;;;;;;;;;;;;;;6.88;74.02;101744.77;104969;1289;67143;-55
2023/09/24 06:00:47;;;;;;;;;;;;;;;7.02;74.14;101750.67;104946;1289;71278;-55
2023/09/24 06:03:33;;;;;;;;;;;;;;;7.16;73.54;101756.58;98324;1290;5003430;-56
2023/09/24 06:06:19;;;;;;;;;;;;;;;7.29;73.70;101757.62;104859;1289;61276;-55
2023/09/24 06:09:09;;;;;;;;;;;;;;;7.40;73.76;101757.44;104883;1292;75104;-56
2023/09/24 06:11:55;;;;;;;;;;;;;;;7.56;74.26;101759.06;104889;1289;70015;-56
2023/09/24 06:14:41;;;;;;;;;;;;;;;7.76;74.12;101765.17;104769;1292;72219;-55
2023/09/24 06:17:29;;;;;;;;;;;;;;;7.94;74.42;101769.01;104845;1290;61194;-56
2023/09/24 06:20:16;;;;;;;;;;;;;;;8.11;74.27;101771.63;104886;1290;61824;-55
2023/09/24 06:23:02;;;;;;;;;;;;;;;8.25;74.03;101777.83;104868;1292;72902;-55
2023/09/24 06:25:58;;;;;;;;;;;;;;;8.30;73.88;101774.96;106184;1289;67452;-56
2023/09/24 06:28:44;;;;;;;;;;;;;;;8.44;74.37;101772.56;106176;1291;71141;-56
2023/09/24 06:31:31;;;;;;;;;;;;;;;8.56;73.82;101776.13;106178;1290;59002;-56
2023/09/24 06:34:18;;;;;;;;;;;;;;;8.70;74.13;101777.83;106121;1291;58942;-56
2023/09/24 06:37:04;;;;;;;;;;;;;;;8.87;73.86;101781.58;106199;1289;75350;-56
2023/09/24 06:39:50;;;;;;;;;;;;;;;9.09;74.16;101790.21;106241;1291;69007;-56
2023/09/24 06:42:37;;;;;;;;;;;;;;;9.38;74.85;101797.51;106167;1290;71298;-56
2023/09/24 06:45:23;;;;;;;;;;;;;;;9.74;75.13;101803.77;106200;1289;59251;-56
2023/09/24 06:48:09;;;;;;;;;;;;;;;10.04;74.69;101806.34;106226;1290;59022;-56
2023/09/24 06:50:55;;;;;;;;;;;;;;;10.32;74.48;101811.68;106188;1290;73465;-55
2023/09/24 06:53:41;;;;;;;;;;;;;;;10.47;74.37;101811.20;106205;1289;67276;-56
2023/09/24 06:56:27;;;;;;;;;;;;;;;10.70;74.63;101819.89;106173;1289;72569;-56
2023/09/24 06:59:13;;;;;;;;;;;;;;;10.96;74.55;101824.94;106117;1291;58917;-56
2023/09/24 07:01:59;;;;;;;;;;;;;;;11.16;74.52;101826.34;106182;1290;59433;-56
2023/09/24 07:04:45;;;;;;;;;;;;;;;11.32;74.48;101833.77;106173;1289;74537;-56
2023/09/24 07:07:30;;;;;;;;;;;;;;;11.43;74.48;101843.78;106134;1290;67323;-56
2023/09/24 07:10:16;;;;;;;;;;;;;;;11.47;74.65;101851.54;106180;1291;72885;-56
2023/09/24 07:13:03;;;;;;;;;;;;;;;11.66;74.85;101853.61;106103;1290;59398;-57
2023/09/24 07:15:49;;;;;;;;;;;;;;;11.87;74.79;101859.50;106163;1291;59594;-56
2023/09/24 07:18:35;;;;;;;;;;;;;;;11.98;74.68;101863.42;106168;1291;74324;-57
2023/09/24 07:21:22;;;;;;;;;;;;;;;12.20;74.72;101863.73;106138;1291;67425;-56
2023/09/24 07:24:08;;;;;;;;;;;;;;;12.32;74.52;101869.05;106199;1289;71453;-54
2023/09/24 07:26:54;;;;;;;;;;;;;;;12.50;74.78;101867.41;106144;1289;59269;-57
2023/09/24 07:29:41;;;;;;;;;;;;;;;12.61;74.83;101869.27;106057;1290;60506;-57
2023/09/24 07:32:28;;;;;;;;;;;;;;;12.72;74.92;101869.39;105648;1291;75151;-56
2023/09/24 07:35:14;;;;;;;;;;;;;;;12.98;74.94;101874.44;104884;1291;67484;-57
2023/09/24 07:38:00;;;;;;;;;;;;;;;13.52;75.32;101873.20;104826;1294;71880;-56
2023/09/24 07:40:46;;;;;;;;;;;;;;;14.00;74.59;101875.17;104877;1289;61356;-57
2023/09/24 07:43:32;;;;;;;;;;;;;;;14.27;74.39;101874.70;104890;1292;61147;-57
2023/09/24 07:46:19;;;;;;;;;;;;;;;14.74;74.53;101880.05;104859;1292;75953;-57
2023/09/24 07:49:05;;;;;;;;;;;;;;;15.30;74.38;101884.27;104765;1291;69152;-55
2023/09/24 07:51:52;;;;;;;;;;;;;;;15.53;72.94;101890.52;104813;1291;71163;-56
2023/09/24 07:54:38;;;;;;;;;;;;;;;15.90;74.90;101885.89;104856;1291;61332;-55
2023/09/24 07:57:24;;;;;;;;;;;;;;;16.64;74.22;101883.58;104889;1290;61314;-55
2023/09/24 08:00:10;;;;;;;;;;;;;;;17.15;73.72;101886.46;104822;1291;73323;-55
2023/09/24 08:02:56;;;;;;;;;;;;;;;17.55;73.74;101888.29;104906;1292;66747;-56
2023/09/24 08:05:43;;;;;;;;;;;;;;;17.68;73.08;101897.77;104856;1292;71091;-56
2023/09/24 08:08:29;;;;;;;;;;;;;;;17.46;68.78;101900.02;104884;1292;62051;-55
2023/09/24 08:11:16;;;;;;;;;;;;;;;17.32;70.96;101899.82;104884;1291;61215;-56
2023/09/24 08:14:02;;;;;;;;;;;;;;;17.25;71.21;101899.27;104869;1290;77477;-55
2023/09/24 08:16:49;;;;;;;;;;;;;;;17.64;71.50;101901.48;104812;1291;67235;-55
2023/09/24 08:19:36;;;;;;;;;;;;;;;18.49;73.79;101903.92;104877;1293;71867;-55
2023/09/24 08:22:23;;;;;;;;;;;;;;;19.33;72.27;101906.25;106096;1290;59027;-55
2023/09/24 08:25:09;;;;;;;;;;;;;;;19.71;73.19;101904.16;106204;1290;59721;-57
2023/09/24 08:27:54;;;;;;;;;;;;;;;20.08;70.36;101904.66;106172;1290;74566;-56
2023/09/24 08:30:40;;;;;;;;;;;;;;;19.95;71.15;101902.27;106137;1291;67940;-55
2023/09/24 08:33:26;;;;;;;;;;;;;;;19.92;68.13;101903.63;106148;1289;72495;-54
2023/09/24 08:36:12;;;;;;;;;;;;;;;20.26;72.20;101911.36;105908;1294;59019;-55
2023/09/24 08:38:58;;;;;;;;;;;;;;;21.09;71.52;101915.59;105902;1295;59007;-54
2023/09/24 08:41:45;;;;;;;;;;;;;;;21.47;68.72;101922.13;105662;1297;73403;-55
2023/09/24 08:44:31;;;;;;;;;;;;;;;21.28;68.13;101922.40;106159;1290;68467;-56
2023/09/24 08:47:17;;;;;;;;;;;;;;;21.37;69.84;101921.86;106161;1290;73313;-55
2023/09/24 08:50:04;;;;;;;;;;;;;;;21.78;71.21;101920.86;106219;1290;58923;-56
2023/09/24 08:52:51;;;;;;;;;;;;;;;21.72;65.01;101922.86;106227;1292;59440;-55
2023/09/24 08:55:39;;;;;;;;;;;;;;;21.89;69.83;101921.95;106158;1290;76168;-55
2023/09/24 08:58:25;;;;;;;;;;;;;;;22.56;69.84;101917.61;106107;1291;67652;-56
2023/09/24 09:01:11;;;;;;;;;;;;;;;23.47;67.70;101921.17;106121;1292;73012;-55
2023/09/24 09:03:58;;;;;;;;;;;;;;;23.68;63.93;101919.98;106099;1290;59274;-57
2023/09/24 09:06:43;;;;;;;;;;;;;;;23.85;68.95;101928.48;106107;1290;59041;-55
2023/09/24 09:09:29;;;;;;;;;;;;;;;24.59;70.01;101929.00;106185;1291;74421;-56
2023/09/24 09:12:19;;;;;;;;;;;;;;;25.37;69.64;101931.19;106227;1291;67431;-57
2023/09/24 09:15:15;;;;;;;;;;;;;;;26.28;70.10;101931.96;106286;1289;71357;-57
2023/09/24 09:18:02;;;;;;;;;;;;;;;26.56;62.68;101928.08;106223;1289;59112;-57
2023/09/24 09:20:49;;;;;;;;;;;;;;;26.96;68.49;101930.67;106249;1291;60021;-57
2023/09/24 09:23:36;;;;;;;;;;;;;;;28.03;69.48;101933.65;105520;1290;240024;-56
2023/09/24 09:26:32;;;;;;;;;;;;;;;28.57;66.05;101930.60;104899;1289;67407;-57
2023/09/24 09:29:26;;;;;;;;;;;;;;;28.18;62.10;101933.14;104936;1291;71236;-56
2023/09/24 09:32:11;;;;;;;;;;;;;;;27.95;59.42;101936.16;106248;1289;58908;-56
2023/09/24 09:34:57;;;;;;;;;;;;;;;27.27;55.24;101934.88;106232;1289;58880;-56
2023/09/24 09:37:44;;;;;;;;;;;;;;;27.09;61.30;101933.41;106212;1289;74496;-57
2023/09/24 09:40:29;;;;;;;;;;;;;;;26.92;55.77;101930.56;106206;1289;68549;-57
2023/09/24 09:43:16;;;;;;;;;;;;;;;27.15;62.12;101932.63;106252;1289;71046;-56
2023/09/24 09:46:04;;;;;;;;;;;;;;;27.96;62.59;101930.40;106229;1292;58856;-57
2023/09/24 09:48:58;;;;;;;;;;;;;;;28.65;57.77;101937.81;106292;1288;60755;-57
2023/09/24 09:51:45;;;;;;;;;;;;;;;28.11;56.99;101941.80;106067;1289;73234;-57
2023/09/24 09:54:33;;;;;;;;;;;;;;;28.73;55.75;101940.64;106261;1288;67380;-57
2023/09/24 09:57:20;;;;;;;;;;;;;;;28.54;57.24;101943.11;106244;1293;71417;-58
2023/09/24 10:00:10;;;;;;;;;;;;;;;28.78;54.64;101944.73;106087;1290;59252;-57
2023/09/24 10:02:56;;;;;;;;;;;;;;;27.90;46.46;101946.27;106214;1289;59630;-57
2023/09/24 10:05:42;;;;;;;;;;;;;;;27.93;51.03;101954.02;106261;1288;74169;-56
2023/09/24 10:08:34;;;;;;;;;;;;;;;27.13;44.50;101949.61;106216;1289;69036;-57
2023/09/24 10:11:29;;;;;;;;;;;;;;;27.00;47.27;101953.09;106246;1289;71419;-57
2023/09/24 10:14:29;;;;;;;;;;;;;;;27.92;50.24;101950.02;106202;1291;59432;-57
2023/09/24 10:17:15;;;;;;;;;;;;;;;28.98;51.02;101956.40;106257;1289;59898;-56
2023/09/24 10:20:08;;;;;;;;;;;;;;;29.60;46.35;101958.39;106198;1292;73857;-57
2023/09/24 10:22:54;;;;;;;;;;;;;;;29.21;43.83;101953.68;106239;1289;67914;-58
2023/09/24 10:25:44;;;;;;;;;;;;;;;29.46;48.82;101952.36;106290;1289;71254;-58
2023/09/24 10:28:56;;;;;;;;;;;;;;;29.43;44.46;101953.64;106251;1289;59095;-57
2023/09/24 10:32:00;;;;;;;;;;;;;;;29.00;44.03;101963.35;106288;1289;59002;-57
2023/09/24 10:34:55;;;;;;;;;;;;;;;29.07;47.43;101960.93;106290;1288;73707;-57
2023/09/24 10:37:58;;;;;;;;;;;;;;;29.94;48.77;101964.86;106261;1289;67966;-57
2023/09/24 10:41:04;;;;;;;;;;;;;;;30.90;46.04;101970.48;106253;1291;71376;-57
2023/09/24 10:44:13;;;;;;;;;;;;;;;30.94;47.19;101970.17;106227;1289;59092;-57
2023/09/24 10:46:59;;;;;;;;;;;;;;;32.26;48.75;101970.13;106274;1288;59318;-57
2023/09/24 10:49:45;;;;;;;;;;;;;;;33.58;49.01;101966.41;106277;1292;73217;-58
2023/09/24 10:52:47;;;;;;;;;;;;;;;33.73;45.43;101963.89;106241;1289;67296;-57
2023/09/24 10:55:33;;;;;;;;;;;;;;;33.44;46.98;101964.08;106262;1289;71159;-58
2023/09/24 10:58:19;;;;;;;;;;;;;;;33.85;45.29;101967.96;106260;1289;59033;-57
2023/09/24 11:01:05;;;;;;;;;;;;;;;33.57;42.89;101969.67;106283;1289;59423;-58
2023/09/24 11:03:51;;;;;;;;;;;;;;;33.44;42.58;101970.52;106226;1289;74790;-58
2023/09/24 11:06:37;;;;;;;;;;;;;;;33.16;41.87;101973.80;106302;1289;67629;-58
2023/09/24 11:09:23;;;;;;;;;;;;;;;32.71;41.57;101973.55;106210;1291;72650;-57
2023/09/24 11:12:08;;;;;;;;;;;;;;;30.99;39.21;101974.14;106121;1292;59067;-57
2023/09/24 11:14:55;;;;;;;;;;;;;;;30.23;37.50;101971.18;106081;1292;59312;-56
2023/09/24 11:17:43;;;;;;;;;;;;;;;28.88;39.47;101969.33;106169;1292;73704;-57
2023/09/24 11:20:31;;;;;;;;;;;;;;;28.84;40.03;101967.73;106192;1291;68687;-56
2023/09/24 11:23:17;;;;;;;;;;;;;;;29.28;37.10;101961.99;106201;1290;71182;-57
2023/09/24 11:26:03;;;;;;;;;;;;;;;29.01;37.33;101967.91;106145;1290;59148;-57
2023/09/24 11:28:49;;;;;;;;;;;;;;;28.90;38.15;101976.34;106229;1290;60287;-57
2023/09/24 11:31:34;;;;;;;;;;;;;;;29.03;39.69;101974.65;106150;1292;73055;-57
2023/09/24 11:34:21;;;;;;;;;;;;;;;29.87;37.01;101978.77;106210;1291;67464;-56
2023/09/24 11:37:10;;;;;;;;;;;;;;;29.33;35.95;101975.49;106199;1292;72502;-57
2023/09/24 11:39:55;;;;;;;;;;;;;;;28.65;35.44;101977.26;106066;1290;58775;-57
2023/09/24 11:42:47;;;;;;;;;;;;;;;28.58;37.02;101975.98;106188;1291;58909;-57
2023/09/24 11:45:54;;;;;;;;;;;;;;;28.64;36.16;101975.54;106143;1290;73346;-57
2023/09/24 11:48:40;;;;;;;;;;;;;;;28.34;37.39;101977.81;106191;1291;67433;-57
2023/09/24 11:51:26;;;;;;;;;;;;;;;29.52;36.80;101977.50;106191;1289;71275;-57
2023/09/24 11:54:13;;;;;;;;;;;;;;;30.32;35.59;101977.55;106126;1291;58966;-58
2023/09/24 11:56:59;;;;;;;;;;;;;;;30.93;37.55;101978.28;106138;1291;59044;-57
2023/09/24 11:59:45;;;;;;;;;;;;;;;31.84;36.16;101980.13;106140;1290;74385;-57
2023/09/24 12:02:30;;;;;;;;;;;;;;;32.08;36.75;101980.61;106174;1292;67411;-58
2023/09/24 12:05:16;;;;;;;;;;;;;;;32.07;37.04;101981.48;106172;1289;72510;-58
2023/09/24 12:08:03;;;;;;;;;;;;;;;32.68;37.96;101979.85;106093;1291;59226;-58
2023/09/24 12:10:52;;;;;;;;;;;;;;;33.12;36.79;101980.27;106188;1289;58874;-57
2023/09/24 12:13:38;;;;;;;;;;;;;;;32.66;36.79;101987.31;106136;1289;72868;-57
2023/09/24 12:16:24;;;;;;;;;;;;;;;31.39;36.84;101987.48;106137;1289;68540;-57
2023/09/24 12:19:09;;;;;;;;;;;;;;;29.76;37.18;101983.11;106242;1289;71458;-57
2023/09/24 12:21:55;;;;;;;;;;;;;;;28.84;37.57;101984.40;105289;1289;61305;-57
2023/09/24 12:24:42;;;;;;;;;;;;;;;28.70;35.01;101984.17;104938;1289;61469;-54
2023/09/24 12:27:31;;;;;;;;;;;;;;;27.99;34.84;101989.28;104970;1289;73276;-56
2023/09/24 12:30:17;;;;;;;;;;;;;;;27.35;34.76;101988.52;104793;1288;67342;-57
2023/09/24 12:33:04;;;;;;;;;;;;;;;26.72;35.86;101989.70;104912;1294;71957;-56
2023/09/24 12:35:53;;;;;;;;;;;;;;;26.73;36.02;101988.23;104905;1294;61509;-57
2023/09/24 12:38:39;;;;;;;;;;;;;;;26.26;36.68;101985.96;104952;1292;61282;-56
2023/09/24 12:41:25;;;;;;;;;;;;;;;26.36;36.55;101985.41;104933;1294;73299;-57
2023/09/24 12:44:11;;;;;;;;;;;;;;;25.52;36.79;101987.88;104984;1289;69212;-56
2023/09/24 12:46:58;;;;;;;;;;;;;;;24.82;36.84;101985.95;104982;1289;71256;-56
2023/09/24 12:49:44;;;;;;;;;;;;;;;24.27;37.11;101992.02;104893;1289;61173;-55
2023/09/24 12:52:34;;;;;;;;;;;;;;;23.90;38.66;101991.59;104962;1289;62398;-56
2023/09/24 12:55:21;;;;;;;;;;;;;;;23.11;37.88;101991.39;104929;1292;76594;-56
2023/09/24 12:58:07;;;;;;;;;;;;;;;22.55;38.20;101990.95;104997;1289;67839;-56
2023/09/24 13:00:54;;;;;;;;;;;;;;;22.73;38.13;101988.02;105011;1294;71281;-56
2023/09/24 13:03:40;;;;;;;;;;;;;;;23.39;38.39;101992.72;104990;1289;61554;-54
2023/09/24 13:06:26;;;;;;;;;;;;;;;23.78;39.64;101993.79;104979;1292;62451;-55
2023/09/24 13:09:16;;;;;;;;;;;;;;;23.52;39.08;101989.79;105046;1290;73504;-56
2023/09/24 13:12:02;;;;;;;;;;;;;;;23.24;39.74;101983.77;105402;1291;67322;-56
2023/09/24 13:14:49;;;;;;;;;;;;;;;22.99;40.29;101977.50;104903;1294;71712;-56
2023/09/24 13:17:35;;;;;;;;;;;;;;;22.79;40.67;101975.63;104949;1291;61167;-56
2023/09/24 13:20:21;;;;;;;;;;;;;;;22.97;41.08;101974.11;104993;1293;59282;-55
2023/09/24 13:23:07;;;;;;;;;;;;;;;23.23;40.78;101970.77;104955;1291;75932;-56
2023/09/24 13:25:54;;;;;;;;;;;;;;;23.19;40.90;101971.35;104930;1290;70057;-55
2023/09/24 13:28:40;;;;;;;;;;;;;;;23.36;40.91;101973.84;104911;1294;71182;-55
2023/09/24 13:31:27;;;;;;;;;;;;;;;23.67;40.42;101975.50;104876;1294;60952;-57
2023/09/24 13:34:13;;;;;;;;;;;;;;;23.84;40.84;101977.48;104925;1291;61250;-55
2023/09/24 13:36:59;;;;;;;;;;;;;;;23.90;40.70;101981.75;104820;1294;75171;-55
2023/09/24 13:39:45;;;;;;;;;;;;;;;23.83;40.45;101981.21;104839;1292;67336;-56
2023/09/24 13:42:31;;;;;;;;;;;;;;;23.57;40.40;101980.07;104973;1295;71256;-56
2023/09/24 13:45:17;;;;;;;;;;;;;;;23.12;40.47;101982.04;104836;1293;61302;-55
2023/09/24 13:48:04;;;;;;;;;;;;;;;22.58;40.45;101983.25;104868;1294;61197;-56
2023/09/24 13:50:50;;;;;;;;;;;;;;;22.15;40.73;101987.77;104927;1290;73172;-56
2023/09/24 13:53:36;;;;;;;;;;;;;;;21.83;40.72;101980.85;104894;1289;67303;-55
2023/09/24 13:56:22;;;;;;;;;;;;;;;21.42;41.00;101982.19;104933;1289;71122;-55
2023/09/24 13:59:08;;;;;;;;;;;;;;;21.20;41.63;101982.53;104817;1289;61238;-55
2023/09/24 14:01:54;;;;;;;;;;;;;;;21.22;41.76;101981.59;104822;1294;61570;-56
2023/09/24 14:04:41;;;;;;;;;;;;;;;21.39;41.83;101978.95;104803;1292;73610;-56
2023/09/24 14:07:27;;;;;;;;;;;;;;;21.64;42.35;101975.52;104830;1294;69644;-57
2023/09/24 14:13:18;;;;;;;;;;;;;;;22.14;42.27;101977.48;104863;1295;61324;-56
2023/09/24 14:16:04;;;;;;;;;;;;;;;22.29;42.91;101974.90;104803;1290;61203;-55